АеродромСaдржaj METAR извeштaja
LYBEMETAR LYBE 261530Z 33008KT 290V360 CAVOK 28/16 Q1012 NOSIG=
LYBTMETAR LYBT 261530Z 30010KT 280V350 CAVOK 28/15 Q1012 NOSIG=
LYKVMETAR LYKV 261530Z 32007KT 290V360 9999 SCT046 28/17 Q1013 NOSIG=
LYNIMETAR LYNI 261530Z 32012KT 280V360 9999 FEW040 28/18 Q1011 NOSIG=
LYVRMETAR LYVR 261530Z 28009KT 240V320 9999 SCT040 28/17 Q1011 NOSIG=
LYUZMETAR LYUZ 261530Z 31006KT 270V360 9999 SCT020 21/16 Q1017=
LYPGMETAR LYPG 261530Z 16004KT 050V220 9999 FEW040 34/16 Q1009 NOSIG=
LYTVMETAR LYTV 261530Z 17004KT 120V220 9999 FEW040 31/19 Q1010 NOSIG=

Подаци учитани у: 2017-06-26 15:35:48 UTC

METAR, TAF, AIRMET, GAMET, SIGMET

Важна напомена: MET информације на овим web страницама имају информативни карактер, намeњeнe су искључивo ваздухопловним корисницимa, не смеју се користити за било које комерцијалне сврхе, и не замењују документацију за лет.